ADDS METAR Data INFO
IDs: Format: Raw Decoded Include TAF

Data at: 0732 UTC 18 Oct 2017

KSAW 180716Z AUTO 19006KT 10SM CLR 08/07 A2994 RMK AO2 T00770065
KSAW 180656Z AUTO 19007KT 10SM CLR 08/07 A2995 RMK AO2 T00810067
KSAW 180636Z AUTO 19007KT 10SM CLR 08/07 A2995 RMK AO2 T00820067
KSAW 180615Z AUTO 18006KT 10SM CLR 09/07 A2995 RMK AO2 T00850069
KSAW 180556Z AUTO 17006KT 10SM CLR 08/07 A2995 RMK AO2 T00810068 10130 20081 402040048
KSAW 180536Z AUTO 17004KT 10SM CLR 08/07 A2995 RMK AO2 T00830066
KSAW 180516Z AUTO 19006KT 10SM CLR 09/07 A2996 RMK AO2 T00870068
KSAW 180454Z AUTO 19007KT 10SM CLR 09/07 A2996 RMK AO2 T00910070
KSAW 180435Z AUTO 18007KT 10SM CLR 09/07 A2997 RMK AO2 T00930071
KSAW 180416Z AUTO 18008KT 10SM CLR 10/07 A2997 RMK AO2 T00950071
KSAW 180355Z AUTO 18007KT 10SM CLR 10/07 A2997 RMK AO2 T00980072
KSAW 180336Z AUTO 18008KT 10SM CLR 10/07 A2997 RMK AO2 T01010072
KSAW 180316Z AUTO 18008KT 10SM CLR 10/07 A2997 RMK AO2 T01030072
KSAW 180256Z AUTO 18009KT 10SM CLR 11/07 A2997 RMK AO2 T01070072
KSAW 180236Z AUTO 18006KT 10SM CLR 11/07 A2998 RMK AO2 T01060071
KSAW 180216Z AUTO 18008KT 10SM CLR 11/07 A2998 RMK AO2 T01050071
KSAW 180147Z 17007KT 10SM SKC 11/07 A2998
KSAW 180047Z 15006KT 10SM SKC 12/06 A2998
KSAW 172345Z 09005KT 10SM SKC 13/07 A2998
KSAW 172247Z 08005KT 10SM SKC 15/08 A2997
KSAW 172147Z 23006KT 10SM SKC 19/03 A2997
KSAW 172047Z 23006KT 10SM SKC 20/03 A2997
KSAW 171947Z 24009KT 10SM SKC 20/02 A2996
KSAW 171850Z 28009KT 10SM SKC 20/02 A2997
KSAW 171750Z 27012KT 10SM SKC 19/03 A2997
KSAW 171645Z 25007KT 10SM SKC 17/05 A2998
KSAW 171545Z 26007KT 10SM SKC 15/05 A2997
KSAW 171445Z 27006KT 10SM SKC 11/05 A2996
KSAW 171345Z 28007KT 10SM SKC 09/04 A2995
KSAW 171245Z 29005KT 10SM SKC 06/03 A2994
KSAW 171145Z 26004KT 10SM SKC 06/02 A2992
KSAW 171045Z 23003KT 10SM SKC 05/02 A2991
KSAW 170956Z AUTO 23003KT 10SM CLR 05/02 A2991 RMK AO2 T00500017
KSAW 170936Z AUTO 23003KT 10SM CLR 05/02 A2991 RMK AO2 T00540018
KSAW 170916Z AUTO 23004KT 10SM CLR 06/02 A2990 RMK AO2 T00550020
KSAW 170856Z AUTO 22005KT 10SM CLR 05/02 A2991 RMK AO2 T00530018
KSAW 170835Z AUTO 22006KT 10SM CLR 06/02 A2991 RMK AO2 T00580020
KSAW 170816Z AUTO 23006KT 10SM CLR 06/02 A2991 RMK AO2 T00610020
KSAW 170756Z AUTO 23006KT 10SM CLR 06/02 A2991 RMK AO2 T00620020
KSAW 170736Z AUTO 23005KT 10SM CLR 06/02 A2992 RMK AO2 T00620020
KSAW 170716Z AUTO 20006KT 10SM CLR 06/02 A2992 RMK AO2 T00630021
KSAW 170656Z AUTO 20007KT 10SM CLR 07/02 A2993 RMK AO2 T00690020
KSAW 170636Z AUTO 21007KT 10SM CLR 08/02 A2993 RMK AO2 T00760022
KSAW 170615Z AUTO 20006KT 10SM CLR 08/03 A2994 RMK AO2 T00760025
KSAW 170556Z AUTO 21007KT 10SM CLR 08/03 A2994 RMK AO2 T00760025 10085 20055 401281015
KSAW 170535Z AUTO 21007KT 10SM SCT100 08/03 A2995 RMK AO2 T00760025
KSAW 170516Z AUTO 21008KT 10SM BKN100 08/03 A2995 RMK AO2 T00820025
KSAW 170456Z AUTO 21009KT 10SM OVC100 09/03 A2996 RMK AO2 T00850026
KSAW 170435Z AUTO 22010KT 10SM OVC100 08/03 A2997 RMK AO2 T00800026
KSAW 170416Z AUTO 22011G16KT 10SM OVC100 08/03 A2998 RMK AO2 T00800026
KSAW 170355Z AUTO 21008KT 10SM BKN100 06/03 A2998 RMK AO2 T00610025
KSAW 170336Z AUTO 19008KT 10SM SCT100 06/03 A2999 RMK AO2 T00580025
KSAW 170316Z AUTO 19009KT 10SM CLR 06/03 A2998 RMK AO2 T00570025
KSAW 170256Z AUTO 20009KT 10SM CLR 06/02 A2999 RMK AO2 T00550024
KSAW 170236Z AUTO 20009KT 10SM CLR 06/03 A2999 RMK AO2 T00560025
KSAW 170216Z AUTO 19010KT 10SM CLR 06/02 A3000 RMK AO2 T00580023
KSAW 170147Z 19009KT 10SM SKC 06/02 A3000
KSAW 170047Z 20009KT 10SM SKC 08/02 A3002
KSAW 162347Z 19007KT 10SM SKC 08/02 A3003
KSAW 162247Z 19005KT 10SM SKC 10/03 A3005
KSAW 162147Z 22006KT 10SM SKC 11/02 A3007
KSAW 162047Z 24006KT 10SM SCT050 SCT120 12/02 A3009
KSAW 161947Z 24006KT 10SM SCT050 12/02 A3010